sensor_id;sensor_type;location;lat;lon;timestamp;P1;durP1;ratioP1;P2;durP2;ratioP2
19645;SDS011;9971;52.446;13.452;2022-09-24T00:02:47;6.72;;;5.42;;
19645;SDS011;9971;52.446;13.452;2022-09-24T00:07:49;6.17;;;5.47;;
19645;SDS011;9971;52.446;13.452;2022-09-24T00:12:52;9.73;;;6.78;;
19645;SDS011;9971;52.446;13.452;2022-09-24T00:17:54;15.00;;;10.60;;
19645;SDS011;9971;52.446;13.452;2022-09-24T00:47:58;6.12;;;5.12;;
19645;SDS011;9971;52.446;13.452;2022-09-24T00:53:02;5.00;;;4.55;;
19645;SDS011;9971;52.446;13.452;2022-09-24T00:58:04;10.32;;;6.83;;
19645;SDS011;9971;52.446;13.452;2022-09-24T01:03:08;8.53;;;6.00;;
19645;SDS011;9971;52.446;13.452;2022-09-24T01:08:10;9.33;;;6.30;;
19645;SDS011;9971;52.446;13.452;2022-09-24T01:13:16;7.60;;;5.97;;
19645;SDS011;9971;52.446;13.452;2022-09-24T01:18:19;7.03;;;5.58;;
19645;SDS011;9971;52.446;13.452;2022-09-24T01:24:14;7.53;;;6.20;;
19645;SDS011;9971;52.446;13.452;2022-09-24T01:29:03;8.30;;;6.17;;
19645;SDS011;9971;52.446;13.452;2022-09-24T01:34:10;6.10;;;5.42;;
19645;SDS011;9971;52.446;13.452;2022-09-24T01:39:12;6.00;;;5.22;;
19645;SDS011;9971;52.446;13.452;2022-09-24T01:44:14;7.42;;;5.45;;
19645;SDS011;9971;52.446;13.452;2022-09-24T01:49:16;7.10;;;6.30;;
19645;SDS011;9971;52.446;13.452;2022-09-24T01:54:24;7.80;;;5.47;;
19645;SDS011;9971;52.446;13.452;2022-09-24T01:59:28;8.37;;;5.70;;
19645;SDS011;9971;52.446;13.452;2022-09-24T02:04:34;5.50;;;5.00;;
19645;SDS011;9971;52.446;13.452;2022-09-24T02:09:41;7.07;;;5.27;;
19645;SDS011;9971;52.446;13.452;2022-09-24T02:14:44;6.92;;;4.60;;
19645;SDS011;9971;52.446;13.452;2022-09-24T02:19:45;5.30;;;4.80;;
19645;SDS011;9971;52.446;13.452;2022-09-24T02:24:48;5.27;;;4.73;;
19645;SDS011;9971;52.446;13.452;2022-09-24T02:29:50;4.67;;;4.20;;
19645;SDS011;9971;52.446;13.452;2022-09-24T02:34:53;5.00;;;4.50;;
19645;SDS011;9971;52.446;13.452;2022-09-24T02:39:54;4.87;;;4.33;;
19645;SDS011;9971;52.446;13.452;2022-09-24T02:44:56;4.80;;;4.30;;
19645;SDS011;9971;52.446;13.452;2022-09-24T02:49:58;4.83;;;4.30;;
19645;SDS011;9971;52.446;13.452;2022-09-24T02:55:00;5.85;;;4.65;;
19645;SDS011;9971;52.446;13.452;2022-09-24T03:00:02;4.33;;;3.93;;
19645;SDS011;9971;52.446;13.452;2022-09-24T03:05:05;3.75;;;3.45;;
19645;SDS011;9971;52.446;13.452;2022-09-24T03:10:09;5.07;;;4.07;;
19645;SDS011;9971;52.446;13.452;2022-09-24T03:15:11;4.75;;;4.28;;
19645;SDS011;9971;52.446;13.452;2022-09-24T03:20:13;3.90;;;3.60;;
19645;SDS011;9971;52.446;13.452;2022-09-24T03:25:18;5.30;;;4.37;;
19645;SDS011;9971;52.446;13.452;2022-09-24T03:30:19;4.80;;;4.03;;
19645;SDS011;9971;52.446;13.452;2022-09-24T03:35:28;5.47;;;4.00;;
19645;SDS011;9971;52.446;13.452;2022-09-24T03:40:30;4.60;;;4.20;;
19645;SDS011;9971;52.446;13.452;2022-09-24T03:45:33;4.20;;;3.80;;
19645;SDS011;9971;52.446;13.452;2022-09-24T03:50:36;4.90;;;3.83;;
19645;SDS011;9971;52.446;13.452;2022-09-24T03:55:42;5.83;;;3.83;;
19645;SDS011;9971;52.446;13.452;2022-09-24T04:00:47;4.50;;;4.10;;
19645;SDS011;9971;52.446;13.452;2022-09-24T04:05:49;4.42;;;4.05;;
19645;SDS011;9971;52.446;13.452;2022-09-24T04:10:52;5.42;;;4.17;;
19645;SDS011;9971;52.446;13.452;2022-09-24T04:15:54;4.20;;;3.83;;
19645;SDS011;9971;52.446;13.452;2022-09-24T04:20:58;5.87;;;3.70;;
19645;SDS011;9971;52.446;13.452;2022-09-24T04:26:00;4.17;;;3.77;;
19645;SDS011;9971;52.446;13.452;2022-09-24T04:31:02;4.60;;;4.20;;
19645;SDS011;9971;52.446;13.452;2022-09-24T04:36:04;4.60;;;4.10;;
19645;SDS011;9971;52.446;13.452;2022-09-24T04:41:07;4.75;;;4.35;;
19645;SDS011;9971;52.446;13.452;2022-09-24T04:46:09;4.50;;;4.13;;
19645;SDS011;9971;52.446;13.452;2022-09-24T04:51:11;5.08;;;4.47;;
19645;SDS011;9971;52.446;13.452;2022-09-24T04:56:17;4.40;;;4.03;;
19645;SDS011;9971;52.446;13.452;2022-09-24T05:01:20;4.80;;;4.37;;
19645;SDS011;9971;52.446;13.452;2022-09-24T05:06:23;4.50;;;4.10;;
19645;SDS011;9971;52.446;13.452;2022-09-24T05:11:26;4.97;;;4.30;;
19645;SDS011;9971;52.446;13.452;2022-09-24T05:16:29;4.65;;;4.33;;
19645;SDS011;9971;52.446;13.452;2022-09-24T05:21:31;4.97;;;4.58;;
19645;SDS011;9971;52.446;13.452;2022-09-24T05:26:34;4.05;;;3.75;;
19645;SDS011;9971;52.446;13.452;2022-09-24T05:31:43;5.13;;;4.63;;
19645;SDS011;9971;52.446;13.452;2022-09-24T05:36:45;4.60;;;4.20;;
19645;SDS011;9971;52.446;13.452;2022-09-24T05:41:47;5.05;;;4.55;;
19645;SDS011;9971;52.446;13.452;2022-09-24T05:46:51;5.67;;;5.15;;
19645;SDS011;9971;52.446;13.452;2022-09-24T05:51:54;5.57;;;5.07;;
19645;SDS011;9971;52.446;13.452;2022-09-24T05:56:57;5.25;;;4.85;;
19645;SDS011;9971;52.446;13.452;2022-09-24T06:01:59;5.22;;;4.67;;
19645;SDS011;9971;52.446;13.452;2022-09-24T06:07:01;5.03;;;4.62;;
19645;SDS011;9971;52.446;13.452;2022-09-24T06:12:06;5.22;;;4.72;;
19645;SDS011;9971;52.446;13.452;2022-09-24T06:17:06;7.70;;;4.40;;
19645;SDS011;9971;52.446;13.452;2022-09-24T06:22:09;5.22;;;4.53;;
19645;SDS011;9971;52.446;13.452;2022-09-24T06:27:11;5.37;;;4.63;;
19645;SDS011;9971;52.446;13.452;2022-09-24T06:32:14;6.20;;;5.65;;
19645;SDS011;9971;52.446;13.452;2022-09-24T06:37:16;5.00;;;4.60;;
19645;SDS011;9971;52.446;13.452;2022-09-24T06:42:20;4.77;;;4.37;;
19645;SDS011;9971;52.446;13.452;2022-09-24T06:47:22;5.17;;;4.70;;
19645;SDS011;9971;52.446;13.452;2022-09-24T06:52:28;6.47;;;4.72;;
19645;SDS011;9971;52.446;13.452;2022-09-24T06:57:28;5.57;;;4.87;;
19645;SDS011;9971;52.446;13.452;2022-09-24T07:02:31;5.67;;;4.85;;
19645;SDS011;9971;52.446;13.452;2022-09-24T07:07:34;5.03;;;4.27;;
19645;SDS011;9971;52.446;13.452;2022-09-24T07:12:36;5.58;;;4.60;;
19645;SDS011;9971;52.446;13.452;2022-09-24T07:17:38;5.12;;;4.62;;
19645;SDS011;9971;52.446;13.452;2022-09-24T07:22:41;6.30;;;4.77;;
19645;SDS011;9971;52.446;13.452;2022-09-24T07:27:47;4.55;;;4.20;;
19645;SDS011;9971;52.446;13.452;2022-09-24T07:32:53;5.87;;;4.43;;
19645;SDS011;9971;52.446;13.452;2022-09-24T07:37:55;4.65;;;4.25;;
19645;SDS011;9971;52.446;13.452;2022-09-24T07:42:56;4.67;;;4.27;;
19645;SDS011;9971;52.446;13.452;2022-09-24T07:47:59;4.57;;;4.17;;
19645;SDS011;9971;52.446;13.452;2022-09-24T07:53:00;4.72;;;4.28;;
19645;SDS011;9971;52.446;13.452;2022-09-24T07:58:03;4.87;;;4.47;;
19645;SDS011;9971;52.446;13.452;2022-09-24T08:03:05;4.53;;;4.12;;
19645;SDS011;9971;52.446;13.452;2022-09-24T08:08:07;4.60;;;4.20;;
19645;SDS011;9971;52.446;13.452;2022-09-24T08:13:10;4.55;;;4.20;;
19645;SDS011;9971;52.446;13.452;2022-09-24T08:18:12;4.75;;;4.28;;
19645;SDS011;9971;52.446;13.452;2022-09-24T08:23:15;4.83;;;4.42;;
19645;SDS011;9971;52.446;13.452;2022-09-24T08:28:17;4.78;;;4.25;;
19645;SDS011;9971;52.446;13.452;2022-09-24T08:33:20;6.75;;;4.75;;
19645;SDS011;9971;52.446;13.452;2022-09-24T08:38:23;4.72;;;4.17;;
19645;SDS011;9971;52.446;13.452;2022-09-24T08:48:53;6.30;;;5.73;;
19645;SDS011;9971;52.446;13.452;2022-09-24T08:53:57;5.73;;;5.23;;
19645;SDS011;9971;52.446;13.452;2022-09-24T08:58:59;6.25;;;5.42;;
19645;SDS011;9971;52.446;13.452;2022-09-24T09:04:05;5.50;;;5.03;;
19645;SDS011;9971;52.446;13.452;2022-09-24T09:09:10;6.20;;;4.92;;
19645;SDS011;9971;52.446;13.452;2022-09-24T09:14:34;7.10;;;5.17;;
19645;SDS011;9971;52.446;13.452;2022-09-24T09:19:47;7.33;;;3.90;;
19645;SDS011;9971;52.446;13.452;2022-09-24T09:24:52;4.60;;;4.17;;
19645;SDS011;9971;52.446;13.452;2022-09-24T09:29:57;5.37;;;4.87;;
19645;SDS011;9971;52.446;13.452;2022-09-24T09:35:06;4.77;;;4.27;;
19645;SDS011;9971;52.446;13.452;2022-09-24T09:45:25;5.37;;;4.43;;
19645;SDS011;9971;52.446;13.452;2022-09-24T09:50:28;5.20;;;4.70;;
19645;SDS011;9971;52.446;13.452;2022-09-24T09:55:35;4.50;;;4.10;;
19645;SDS011;9971;52.446;13.452;2022-09-24T10:00:36;4.13;;;3.73;;
19645;SDS011;9971;52.446;13.452;2022-09-24T10:05:38;5.33;;;4.83;;
19645;SDS011;9971;52.446;13.452;2022-09-24T10:10:41;4.87;;;4.47;;
19645;SDS011;9971;52.446;13.452;2022-09-24T10:20:52;3.80;;;3.50;;
19645;SDS011;9971;52.446;13.452;2022-09-24T10:25:56;4.03;;;3.72;;
19645;SDS011;9971;52.446;13.452;2022-09-24T10:30:58;4.70;;;3.43;;
19645;SDS011;9971;52.446;13.452;2022-09-24T10:36:04;4.00;;;3.60;;
19645;SDS011;9971;52.446;13.452;2022-09-24T10:41:14;4.73;;;3.80;;
19645;SDS011;9971;52.446;13.452;2022-09-24T10:46:39;3.27;;;3.07;;
19645;SDS011;9971;52.446;13.452;2022-09-24T10:51:59;3.33;;;3.00;;
19645;SDS011;9971;52.446;13.452;2022-09-24T10:56:58;3.45;;;3.20;;
19645;SDS011;9971;52.446;13.452;2022-09-24T11:02:06;4.60;;;3.37;;
19645;SDS011;9971;52.446;13.452;2022-09-24T11:12:49;3.12;;;2.92;;
19645;SDS011;9971;52.446;13.452;2022-09-24T11:17:57;3.50;;;3.20;;
19645;SDS011;9971;52.446;13.452;2022-09-24T11:23:31;3.97;;;3.67;;
19645;SDS011;9971;52.446;13.452;2022-09-24T11:34:19;3.23;;;3.03;;
19645;SDS011;9971;52.446;13.452;2022-09-24T11:45:09;4.03;;;2.98;;
19645;SDS011;9971;52.446;13.452;2022-09-24T11:50:20;3.12;;;2.90;;
19645;SDS011;9971;52.446;13.452;2022-09-24T11:55:38;3.50;;;3.20;;
19645;SDS011;9971;52.446;13.452;2022-09-24T12:00:45;3.13;;;2.83;;
19645;SDS011;9971;52.446;13.452;2022-09-24T12:05:50;3.20;;;2.90;;
19645;SDS011;9971;52.446;13.452;2022-09-24T12:10:57;3.27;;;3.07;;
19645;SDS011;9971;52.446;13.452;2022-09-24T12:16:01;3.45;;;2.75;;
19645;SDS011;9971;52.446;13.452;2022-09-24T12:21:07;3.13;;;2.83;;
19645;SDS011;9971;52.446;13.452;2022-09-24T12:26:08;3.93;;;2.93;;
19645;SDS011;9971;52.446;13.452;2022-09-24T12:31:12;2.80;;;2.60;;
19645;SDS011;9971;52.446;13.452;2022-09-24T12:36:22;3.73;;;3.13;;
19645;SDS011;9971;52.446;13.452;2022-09-24T12:41:23;3.77;;;3.20;;
19645;SDS011;9971;52.446;13.452;2022-09-24T12:46:27;3.52;;;3.20;;
19645;SDS011;9971;52.446;13.452;2022-09-24T12:51:33;4.17;;;2.83;;
19645;SDS011;9971;52.446;13.452;2022-09-24T12:56:35;3.60;;;3.30;;
19645;SDS011;9971;52.446;13.452;2022-09-24T13:01:37;2.90;;;2.70;;
19645;SDS011;9971;52.446;13.452;2022-09-24T13:06:41;2.80;;;2.60;;
19645;SDS011;9971;52.446;13.452;2022-09-24T13:11:43;4.13;;;3.20;;
19645;SDS011;9971;52.446;13.452;2022-09-24T13:16:45;3.30;;;3.10;;
19645;SDS011;9971;52.446;13.452;2022-09-24T13:21:51;3.13;;;2.93;;
19645;SDS011;9971;52.446;13.452;2022-09-24T13:26:49;3.37;;;3.00;;
19645;SDS011;9971;52.446;13.452;2022-09-24T13:31:53;3.37;;;2.80;;
19645;SDS011;9971;52.446;13.452;2022-09-24T13:42:22;4.10;;;3.70;;
19645;SDS011;9971;52.446;13.452;2022-09-24T13:47:57;3.05;;;2.85;;
19645;SDS011;9971;52.446;13.452;2022-09-24T13:52:44;3.23;;;3.00;;
19645;SDS011;9971;52.446;13.452;2022-09-24T13:57:46;4.10;;;3.02;;
19645;SDS011;9971;52.446;13.452;2022-09-24T14:07:59;2.93;;;2.73;;
19645;SDS011;9971;52.446;13.452;2022-09-24T14:18:24;3.33;;;3.03;;
19645;SDS011;9971;52.446;13.452;2022-09-24T14:23:26;3.63;;;3.33;;
19645;SDS011;9971;52.446;13.452;2022-09-24T14:28:27;3.70;;;3.30;;
19645;SDS011;9971;52.446;13.452;2022-09-24T14:33:30;4.33;;;3.33;;
19645;SDS011;9971;52.446;13.452;2022-09-24T14:38:33;3.27;;;2.97;;
19645;SDS011;9971;52.446;13.452;2022-09-24T14:43:37;4.50;;;3.30;;
19645;SDS011;9971;52.446;13.452;2022-09-24T14:48:37;3.30;;;3.00;;
19645;SDS011;9971;52.446;13.452;2022-09-24T14:53:40;3.60;;;3.10;;
19645;SDS011;9971;52.446;13.452;2022-09-24T14:58:42;3.90;;;3.40;;
19645;SDS011;9971;52.446;13.452;2022-09-24T15:03:48;3.55;;;3.25;;
19645;SDS011;9971;52.446;13.452;2022-09-24T15:08:52;3.50;;;3.20;;
19645;SDS011;9971;52.446;13.452;2022-09-24T15:13:57;5.57;;;3.87;;
19645;SDS011;9971;52.446;13.452;2022-09-24T15:24:16;3.70;;;3.40;;
19645;SDS011;9971;52.446;13.452;2022-09-24T15:29:18;4.13;;;3.37;;
19645;SDS011;9971;52.446;13.452;2022-09-24T15:34:20;4.25;;;3.92;;
19645;SDS011;9971;52.446;13.452;2022-09-24T15:39:22;4.23;;;3.87;;
19645;SDS011;9971;52.446;13.452;2022-09-24T15:44:25;4.50;;;3.62;;
19645;SDS011;9971;52.446;13.452;2022-09-24T15:49:28;4.50;;;3.97;;
19645;SDS011;9971;52.446;13.452;2022-09-24T15:54:30;4.43;;;4.00;;
19645;SDS011;9971;52.446;13.452;2022-09-24T15:59:33;4.35;;;3.95;;
19645;SDS011;9971;52.446;13.452;2022-09-24T16:04:37;4.85;;;4.35;;
19645;SDS011;9971;52.446;13.452;2022-09-24T16:09:39;4.60;;;4.20;;
19645;SDS011;9971;52.446;13.452;2022-09-24T16:14:41;4.23;;;3.93;;
19645;SDS011;9971;52.446;13.452;2022-09-24T16:19:43;5.00;;;4.60;;
19645;SDS011;9971;52.446;13.452;2022-09-24T16:24:46;5.75;;;4.85;;
19645;SDS011;9971;52.446;13.452;2022-09-24T16:29:48;6.07;;;4.93;;
19645;SDS011;9971;52.446;13.452;2022-09-24T16:34:51;5.78;;;5.12;;
19645;SDS011;9971;52.446;13.452;2022-09-24T16:39:55;5.10;;;4.63;;
19645;SDS011;9971;52.446;13.452;2022-09-24T16:44:57;5.12;;;4.60;;
19645;SDS011;9971;52.446;13.452;2022-09-24T16:50:00;4.80;;;4.40;;
19645;SDS011;9971;52.446;13.452;2022-09-24T16:55:02;4.47;;;4.12;;
19645;SDS011;9971;52.446;13.452;2022-09-24T17:00:06;6.22;;;4.87;;
19645;SDS011;9971;52.446;13.452;2022-09-24T17:05:09;5.23;;;4.80;;
19645;SDS011;9971;52.446;13.452;2022-09-24T17:10:12;6.40;;;5.70;;
19645;SDS011;9971;52.446;13.452;2022-09-24T17:15:14;6.33;;;5.72;;
19645;SDS011;9971;52.446;13.452;2022-09-24T17:20:16;12.37;;;10.90;;
19645;SDS011;9971;52.446;13.452;2022-09-24T17:50:19;6.10;;;5.53;;
19645;SDS011;9971;52.446;13.452;2022-09-24T17:55:21;6.37;;;5.78;;
19645;SDS011;9971;52.446;13.452;2022-09-24T18:00:24;7.70;;;6.15;;
19645;SDS011;9971;52.446;13.452;2022-09-24T18:05:26;7.55;;;6.72;;
19645;SDS011;9971;52.446;13.452;2022-09-24T18:10:29;7.22;;;6.62;;
19645;SDS011;9971;52.446;13.452;2022-09-24T18:15:34;7.17;;;6.50;;
19645;SDS011;9971;52.446;13.452;2022-09-24T18:20:34;7.33;;;6.43;;
19645;SDS011;9971;52.446;13.452;2022-09-24T18:25:35;8.20;;;6.57;;
19645;SDS011;9971;52.446;13.452;2022-09-24T18:30:40;8.03;;;7.08;;
19645;SDS011;9971;52.446;13.452;2022-09-24T18:35:43;7.28;;;6.37;;
19645;SDS011;9971;52.446;13.452;2022-09-24T18:40:46;7.08;;;6.15;;
19645;SDS011;9971;52.446;13.452;2022-09-24T18:45:50;7.20;;;6.58;;
19645;SDS011;9971;52.446;13.452;2022-09-24T18:50:52;8.20;;;7.40;;
19645;SDS011;9971;52.446;13.452;2022-09-24T18:55:55;8.33;;;7.55;;
19645;SDS011;9971;52.446;13.452;2022-09-24T19:00:58;7.80;;;7.00;;
19645;SDS011;9971;52.446;13.452;2022-09-24T19:06:00;8.20;;;7.37;;
19645;SDS011;9971;52.446;13.452;2022-09-24T19:11:04;6.77;;;6.23;;
19645;SDS011;9971;52.446;13.452;2022-09-24T19:16:07;7.78;;;7.08;;
19645;SDS011;9971;52.446;13.452;2022-09-24T19:21:09;8.38;;;6.85;;
19645;SDS011;9971;52.446;13.452;2022-09-24T19:26:12;7.67;;;6.90;;
19645;SDS011;9971;52.446;13.452;2022-09-24T19:31:13;7.97;;;7.27;;
19645;SDS011;9971;52.446;13.452;2022-09-24T19:36:15;7.53;;;6.83;;
19645;SDS011;9971;52.446;13.452;2022-09-24T19:41:19;7.80;;;7.10;;
19645;SDS011;9971;52.446;13.452;2022-09-24T19:46:19;8.47;;;7.73;;
19645;SDS011;9971;52.446;13.452;2022-09-24T19:51:25;8.07;;;6.73;;
19645;SDS011;9971;52.446;13.452;2022-09-24T19:56:26;7.70;;;6.83;;
19645;SDS011;9971;52.446;13.452;2022-09-24T20:01:29;7.25;;;6.53;;
19645;SDS011;9971;52.446;13.452;2022-09-24T20:06:30;7.37;;;6.77;;
19645;SDS011;9971;52.446;13.452;2022-09-24T20:11:32;7.40;;;6.80;;
19645;SDS011;9971;52.446;13.452;2022-09-24T20:16:34;7.93;;;7.23;;
19645;SDS011;9971;52.446;13.452;2022-09-24T20:21:36;7.25;;;6.62;;
19645;SDS011;9971;52.446;13.452;2022-09-24T20:26:38;7.20;;;6.60;;
19645;SDS011;9971;52.446;13.452;2022-09-24T20:31:47;7.65;;;7.05;;
19645;SDS011;9971;52.446;13.452;2022-09-24T20:36:51;8.07;;;7.37;;
19645;SDS011;9971;52.446;13.452;2022-09-24T20:41:54;8.50;;;7.70;;
19645;SDS011;9971;52.446;13.452;2022-09-24T20:46:56;7.85;;;7.15;;
19645;SDS011;9971;52.446;13.452;2022-09-24T20:51:58;7.23;;;6.57;;
19645;SDS011;9971;52.446;13.452;2022-09-24T20:57:00;6.95;;;6.35;;
19645;SDS011;9971;52.446;13.452;2022-09-24T21:02:03;7.40;;;6.80;;
19645;SDS011;9971;52.446;13.452;2022-09-24T21:07:05;8.15;;;7.08;;
19645;SDS011;9971;52.446;13.452;2022-09-24T21:12:08;7.45;;;6.28;;
19645;SDS011;9971;52.446;13.452;2022-09-24T21:17:10;7.08;;;6.50;;
19645;SDS011;9971;52.446;13.452;2022-09-24T21:22:13;8.30;;;7.50;;
19645;SDS011;9971;52.446;13.452;2022-09-24T21:27:15;9.50;;;6.80;;
19645;SDS011;9971;52.446;13.452;2022-09-24T21:32:17;9.03;;;7.63;;
19645;SDS011;9971;52.446;13.452;2022-09-24T21:37:19;5.85;;;5.25;;
19645;SDS011;9971;52.446;13.452;2022-09-24T21:42:21;7.37;;;6.67;;
19645;SDS011;9971;52.446;13.452;2022-09-24T21:47:25;6.80;;;5.90;;
19645;SDS011;9971;52.446;13.452;2022-09-24T21:52:28;6.63;;;6.03;;
19645;SDS011;9971;52.446;13.452;2022-09-24T21:57:30;6.20;;;5.70;;
19645;SDS011;9971;52.446;13.452;2022-09-24T22:02:32;7.05;;;6.00;;
19645;SDS011;9971;52.446;13.452;2022-09-24T22:07:35;6.87;;;6.10;;
19645;SDS011;9971;52.446;13.452;2022-09-24T22:12:37;6.60;;;6.00;;
19645;SDS011;9971;52.446;13.452;2022-09-24T22:17:40;8.43;;;6.58;;
19645;SDS011;9971;52.446;13.452;2022-09-24T22:22:42;6.47;;;5.97;;
19645;SDS011;9971;52.446;13.452;2022-09-24T22:27:45;5.67;;;5.28;;
19645;SDS011;9971;52.446;13.452;2022-09-24T22:32:47;6.80;;;6.22;;
19645;SDS011;9971;52.446;13.452;2022-09-24T22:37:56;6.83;;;6.23;;
19645;SDS011;9971;52.446;13.452;2022-09-24T22:43:01;6.58;;;6.03;;
19645;SDS011;9971;52.446;13.452;2022-09-24T22:48:03;6.50;;;5.90;;
19645;SDS011;9971;52.446;13.452;2022-09-24T22:53:06;6.08;;;5.37;;
19645;SDS011;9971;52.446;13.452;2022-09-24T22:58:08;6.10;;;5.60;;
19645;SDS011;9971;52.446;13.452;2022-09-24T23:03:10;5.77;;;5.27;;
19645;SDS011;9971;52.446;13.452;2022-09-24T23:08:13;5.70;;;5.20;;
19645;SDS011;9971;52.446;13.452;2022-09-24T23:13:15;4.87;;;4.53;;
19645;SDS011;9971;52.446;13.452;2022-09-24T23:18:18;5.60;;;5.05;;
19645;SDS011;9971;52.446;13.452;2022-09-24T23:23:21;5.33;;;4.87;;
19645;SDS011;9971;52.446;13.452;2022-09-24T23:28:24;5.67;;;5.23;;
19645;SDS011;9971;52.446;13.452;2022-09-24T23:33:29;5.20;;;4.70;;
19645;SDS011;9971;52.446;13.452;2022-09-24T23:38:30;5.55;;;5.05;;
19645;SDS011;9971;52.446;13.452;2022-09-24T23:43:33;5.47;;;5.00;;
19645;SDS011;9971;52.446;13.452;2022-09-24T23:48:35;5.23;;;4.70;;
19645;SDS011;9971;52.446;13.452;2022-09-24T23:53:37;5.13;;;4.73;;
19645;SDS011;9971;52.446;13.452;2022-09-24T23:58:39;5.07;;;4.63;;
